首页
METAR-TAF:

METAR-TAF

机场 :

薩圖馬雷, 罗马尼亚

纬度: 47-48N, 经度: 022-53E, 海拔: 123米

当前天气观测

该预报发布于30分钟前的03:30 UTC
风速4节,风向,在东转东北东南之间变化
温度 5°C
湿度 81%
气压 1006 hPa
能见度10公里或以上

METAR: LRSM 230330Z AUTO 10004KT 070V130 9999 BKN080/// 05/02 Q1006

时间: 06:00 (04:00 UTC)

预报

该预报发布于2小时和0分钟前的02:00 UTC
预报有效从23日的 03点(UTC)到 23日的 12点(UTC)
风速10节,风向东转东南
能见度10公里或以上
多云层高于4500英尺
几率 40% :
短暂存在
从 23日的 09点(UTC)到 23日的 12点(UTC)
能見度: 5000
多云层高于1500英尺
阴天层高于4000英尺
小雨, 轻雾

TAF: LRSM 230200Z 2303/2312 12010KT 9999 BKN045 PROB40 TEMPO 2309/2312 5000 -RA BR BKN015 OVC040

超过4000个机场的气象观测和天气预报(METAR&TAF报告)。

可查询的气象台以黄色和红色小点在地图上表示。

将鼠标移到小点上方,可查看气象台名称。

然后点击查看天气观测和预报。

如需切换地图:点击带黑十字的绿色按钮放大地图;点击带横线的绿色按钮缩小地图;或者点击绿色箭头查看邻近地区的地图。


METAR-TAF: